LRTM Weather Reports


Display with metric or nautical units.
time (UTC)temp
F
wind
direction
speed
MPH
gust
MPH
rain 1hr
in
rain 24hr
in
rain mn
in
humidity
%
barometer
mb
20190422181049 46 90 14.0 0.0 0.00 0.00 0.00 71 1021.0
20190422174051 46 100 14.0 0.0 0.00 0.00 0.00 71 1021.0
20190422171052 48 100 15.0 0.0 0.00 0.00 0.00 66 1021.0
20190422164050 48 100 15.0 0.0 0.00 0.00 0.00 66 1021.0
20190422161051 50 90 14.0 0.0 0.00 0.00 0.00 66 1021.0
20190422154049 50 80 15.0 0.0 0.00 0.00 0.00 66 1021.0
20190422151049 50 80 16.0 0.0 0.00 0.00 0.00 71 1020.0
20190422144049 52 80 16.0 0.0 0.00 0.00 0.00 67 1020.0
20190422141050 50 70 18.0 0.0 0.00 0.00 0.00 76 1020.0
20190422134049 52 80 18.0 0.0 0.00 0.00 0.00 71 1020.0
20190422131050 54 80 21.0 0.0 0.00 0.00 0.00 71 1020.0
20190422124049 55 80 20.0 0.0 0.00 0.00 0.00 72 1020.0
20190422121050 55 70 16.0 0.0 0.00 0.00 0.00 72 1020.0
20190422114049 55 50 13.0 0.0 0.00 0.00 0.00 67 1020.0
20190422111049 55 40 10.0 0.0 0.00 0.00 0.00 67 1020.0
20190422104050 57 60 9.0 0.0 0.00 0.00 0.00 63 1020.0
20190422101049 57 50 10.0 0.0 0.00 0.00 0.00 55 1020.0
20190422094049 55 60 7.0 0.0 0.00 0.00 0.00 67 1020.0
20190422091049 55 80 6.0 0.0 0.00 0.00 0.00 72 1019.0
20190422084048 55 20 6.0 0.0 0.00 0.00 0.00 72 1020.0
20190422081048 54 30 7.0 0.0 0.00 0.00 0.00 77 1020.0
20190422074049 52 70 4.0 0.0 0.00 0.00 0.00 76 1019.0
20190422071049 50 80 6.0 0.0 0.00 0.00 0.00 82 1019.0
20190422064048 50 2.0 0.0 0.00 0.00 0.00 82 1019.0
20190422061048 50 50 5.0 0.0 0.00 0.00 0.00 82 1019.0
20190422054049 50 70 9.0 0.0 0.00 0.00 0.00 82 1018.0
20190422051049 48 70 8.0 0.0 0.00 0.00 0.00 87 1018.0
20190422044049 48 70 6.0 0.0 0.00 0.00 0.00 82 1018.0
20190422041050 48 20 5.0 0.0 0.00 0.00 0.00 76 1018.0
20190422034049 48 30 5.0 0.0 0.00 0.00 0.00 82 1018.0
20190422031049 48 1.0 0.0 0.00 0.00 0.00 82 1018.0
20190422024048 46 70 8.0 0.0 0.00 0.00 0.00 87 1018.0
20190422021048 46 70 7.0 0.0 0.00 0.00 0.00 87 1019.0
20190422014048 45 70 7.0 0.0 0.00 0.00 0.00 87 1019.0
20190422011048 46 50 7.0 0.0 0.00 0.00 0.00 76 1019.0
20190422004048 43 90 6.0 0.0 0.00 0.00 0.00 87 1018.0
20190422001049 39 90 7.0 0.0 0.00 0.00 0.00 87 1018.0
20190421234048 39 90 7.0 0.0 0.00 0.00 0.00 81 1018.0
20190421231048 41 90 6.0 0.0 0.00 0.00 0.00 81 1018.0
20190421224048 41 100 6.0 0.0 0.00 0.00 0.00 81 1018.0
20190421221050 45 100 4.0 0.0 0.00 0.00 0.00 76 1019.0
20190421214049 45 100 6.0 0.0 0.00 0.00 0.00 81 1018.0
20190421211048 45 70 4.0 0.0 0.00 0.00 0.00 81 1019.0
20190421204049 50 80 2.0 0.0 0.00 0.00 0.00 76 1019.0
20190421201048 52 1.0 0.0 0.00 0.00 0.00 67 1019.0
20190421194048 54 30 2.0 0.0 0.00 0.00 0.00 62 1019.0
20190421191049 54 150 2.0 0.0 0.00 0.00 0.00 62 1019.0
20190421184048 54 0 0.0 0.0 0.00 0.00 0.00 67 1018.0